Time;durP1;ratioP1;P1;durP2;ratioP2;P2;SDS_P1;SDS_P2;PMS_P1;PMS_P2;Temp;Humidity;BMP_temperature;BMP_pressure;BME280_temperature;BME280_humidity;BME280_pressure;Samples;Min_cycle;Max_cycle;Signal;HPM_P1;HPM_P2
2022/12/24 00:05:11;;;;;;;5.10;4.53;;;;;12.30;98362.00;;;;16650849;28;20296;-47
2022/12/24 00:13:15;;;;;;;7.27;4.10;;;;;12.60;98355.00;;;;16643183;28;20236;-47
2022/12/24 00:21:17;;;;;;;6.23;2.90;;;;;12.50;98358.00;;;;16646375;28;20195;-47
2022/12/24 00:29:21;;;;;;;7.50;3.60;;;;;12.80;98376.00;;;;16636182;28;20233;-47
2022/12/24 00:37:23;;;;;;;5.13;3.30;;;;;12.80;98375.00;;;;16661038;28;20260;-47
2022/12/24 00:45:27;;;;;;;9.17;3.80;;;;;13.10;98374.00;;;;16667274;28;20222;-47
2022/12/24 00:53:30;;;;;;;6.60;4.57;;;;;13.30;98375.00;;;;16673281;28;20220;-48
2022/12/24 01:01:34;;;;;;;4.47;3.50;;;;;12.30;98389.00;;;;16658997;28;20198;-47
2022/12/24 01:09:37;;;;;;;9.97;3.37;;;;;13.00;98407.00;;;;16695397;28;20237;-48
2022/12/24 01:17:40;;;;;;;6.37;3.20;;;;;12.10;98433.00;;;;16707395;28;20255;-47
2022/12/24 01:25:43;;;;;;;5.77;2.63;;;;;12.40;98448.00;;;;16713652;28;20347;-48
2022/12/24 01:33:48;;;;;;;6.40;1.97;;;;;12.50;98450.00;;;;16707562;28;20367;-48
2022/12/24 01:50:17;;;;;;;6.23;3.63;;;;;11.90;98497.00;;;;16712341;28;20218;-48
2022/12/24 01:58:20;;;;;;;8.60;3.70;;;;;12.60;98539.00;;;;16712042;28;20224;-48
2022/12/24 02:06:24;;;;;;;4.60;3.83;;;;;13.00;98551.00;;;;16712492;28;20232;-48
2022/12/24 02:14:28;;;;;;;7.07;3.03;;;;;12.90;98572.00;;;;16712182;28;20225;-48
2022/12/24 02:22:41;;;;;;;7.73;3.63;;;;;13.00;98544.00;;;;16712052;28;20220;-48
2022/12/24 02:30:47;;;;;;;9.20;3.00;;;;;12.80;98550.00;;;;16711717;28;20217;-48
2022/12/24 02:38:55;;;;;;;9.87;2.63;;;;;12.40;98551.00;;;;16706190;28;20210;-48
2022/12/24 02:46:59;;;;;;;6.53;2.57;;;;;12.80;98551.00;;;;16685884;28;20221;-48
2022/12/24 02:55:04;;;;;;;10.50;3.33;;;;;12.90;98576.00;;;;16688409;28;20221;-48
2022/12/24 03:03:18;;;;;;;4.87;2.90;;;;;12.10;98586.00;;;;16674497;28;20222;-48
2022/12/24 03:11:21;;;;;;;9.57;6.30;;;;;12.20;98587.00;;;;16711973;28;20236;-48
2022/12/24 03:19:25;;;;;;;12.60;3.30;;;;;11.40;98609.00;;;;16721472;28;20577;-47
2022/12/24 03:27:28;;;;;;;8.30;3.17;;;;;11.50;98631.00;;;;16713994;28;20219;-48
2022/12/24 03:35:32;;;;;;;5.13;3.20;;;;;11.70;98614.00;;;;16707680;28;20228;-48
2022/12/24 03:43:34;;;;;;;7.50;3.10;;;;;11.70;98613.00;;;;16718813;28;20226;-47
2022/12/24 03:51:38;;;;;;;7.57;2.87;;;;;11.80;98633.00;;;;16718044;28;20217;-48
2022/12/24 03:59:41;;;;;;;4.30;2.60;;;;;11.80;98627.00;;;;16719373;28;20222;-48
2022/12/24 04:07:45;;;;;;;4.83;2.90;;;;;11.90;98625.00;;;;16695511;28;20785;-48
2022/12/24 04:15:58;;;;;;;7.50;3.77;;;;;12.30;98630.00;;;;16711631;28;20295;-49
2022/12/24 04:24:01;;;;;;;6.77;3.40;;;;;12.80;98618.00;;;;16704218;28;20233;-48
2022/12/24 04:32:04;;;;;;;5.63;2.57;;;;;12.20;98635.00;;;;16717404;28;20248;-48
2022/12/24 04:40:09;;;;;;;7.50;3.20;;;;;12.40;98615.00;;;;16710451;28;20283;-47
2022/12/24 04:48:12;;;;;;;5.70;2.70;;;;;11.70;98639.00;;;;16699447;28;20227;-48
2022/12/24 04:56:17;;;;;;;4.10;2.67;;;;;11.60;98644.00;;;;16715459;28;20220;-48
2022/12/24 05:04:20;;;;;;;7.90;3.03;;;;;12.10;98657.00;;;;16694632;28;20232;-48
2022/12/24 05:12:24;;;;;;;8.43;2.83;;;;;12.50;98658.00;;;;16690063;28;20225;-48
2022/12/24 05:20:26;;;;;;;7.03;2.50;;;;;12.00;98664.00;;;;16711888;28;20198;-48
2022/12/24 05:28:30;;;;;;;10.40;3.23;;;;;12.30;98655.00;;;;16696769;28;20215;-49
2022/12/24 05:36:32;;;;;;;6.33;3.20;;;;;12.00;98671.00;;;;16682702;28;20230;-48
2022/12/24 05:44:36;;;;;;;5.73;2.57;;;;;12.40;98658.00;;;;16692512;28;20230;-48
2022/12/24 05:52:38;;;;;;;6.10;2.53;;;;;11.80;98659.00;;;;16699598;28;20221;-48
2022/12/24 06:00:43;;;;;;;7.53;4.23;;;;;11.20;98679.00;;;;16704026;28;20693;-47
2022/12/24 06:08:46;;;;;;;6.37;3.20;;;;;11.30;98668.00;;;;16705612;28;20586;-53
2022/12/24 06:16:49;;;;;;;9.63;5.30;;;;;10.80;98703.00;;;;16684717;28;20211;-48
2022/12/24 06:24:52;;;;;;;5.03;3.00;;;;;10.60;98692.00;;;;16688647;28;20232;-48
2022/12/24 06:32:55;;;;;;;9.30;3.63;;;;;10.50;98704.00;;;;16708820;28;20254;-48
2022/12/24 06:40:58;;;;;;;9.17;8.17;;;;;10.40;98724.00;;;;16695563;28;20203;-47
2022/12/24 06:49:02;;;;;;;10.73;6.40;;;;;10.40;98739.00;;;;16694401;28;20232;-48
2022/12/24 06:57:05;;;;;;;7.03;3.83;;;;;10.10;98757.00;;;;16690372;28;20222;-48
2022/12/24 07:05:09;;;;;;;9.43;4.30;;;;;10.30;98762.00;;;;16720050;28;20218;-48
2022/12/24 07:13:12;;;;;;;16.80;8.60;;;;;10.50;98762.00;;;;16721101;28;20308;-48
2022/12/24 07:21:16;;;;;;;10.57;6.03;;;;;10.50;98785.00;;;;16721094;28;20205;-48
2022/12/24 07:29:18;;;;;;;6.30;5.33;;;;;10.50;98799.00;;;;16720130;28;20229;-47
2022/12/24 07:37:22;;;;;;;6.70;4.80;;;;;10.10;98821.00;;;;16688647;28;20723;-47
2022/12/24 07:45:24;;;;;;;9.00;4.07;;;;;10.30;98808.00;;;;16713148;28;20730;-48
2022/12/24 07:53:28;;;;;;;10.07;4.83;;;;;10.80;98815.00;;;;16691657;28;20649;-48
2022/12/24 08:01:31;;;;;;;9.53;4.10;;;;;10.40;98813.00;;;;16716637;28;20578;-49
2022/12/24 08:09:35;;;;;;;11.00;4.83;;;;;10.40;98826.00;;;;16709975;28;20226;-47
2022/12/24 08:17:38;;;;;;;7.30;4.40;;;;;10.80;98817.00;;;;16688382;28;20209;-48
2022/12/24 08:25:44;;;;;;;13.07;4.30;;;;;11.40;98808.00;;;;16690936;28;20882;-48
2022/12/24 08:33:47;;;;;;;7.50;3.90;;;;;12.10;98826.00;;;;16690714;28;20715;-48
2022/12/24 08:41:50;;;;;;;10.27;3.73;;;;;12.30;98834.00;;;;16701048;28;20191;-48
2022/12/24 08:49:53;;;;;;;7.50;5.10;;;;;12.20;98838.00;;;;16693803;28;20226;-48
2022/12/24 08:57:57;;;;;;;9.00;4.53;;;;;12.40;98853.00;;;;16678048;28;20250;-48
2022/12/24 09:05:59;;;;;;;11.97;5.07;;;;;12.60;98842.00;;;;16667892;28;20235;-48
2022/12/24 09:14:03;;;;;;;9.13;3.30;;;;;13.10;98866.00;;;;16672012;28;20220;-47
2022/12/24 09:22:05;;;;;;;6.80;3.97;;;;;13.90;98871.00;;;;16669161;28;20226;-48
2022/12/24 09:30:10;;;;;;;8.40;3.30;;;;;14.20;98870.00;;;;16680500;28;20226;-48
2022/12/24 09:38:13;;;;;;;11.40;3.80;;;;;14.30;98886.00;;;;16660684;28;20248;-48
2022/12/24 09:46:21;;;;;;;10.10;3.63;;;;;14.50;98874.00;;;;16687329;28;20301;-48
2022/12/24 09:54:26;;;;;;;8.80;3.37;;;;;14.70;98873.00;;;;16696369;28;20221;-47
2022/12/24 10:02:30;;;;;;;8.63;3.23;;;;;15.40;98873.00;;;;16678928;28;20218;-48
2022/12/24 10:10:51;;;;;;;7.80;2.20;;;;;15.80;98868.00;;;;16704591;28;20229;-48
2022/12/24 10:19:02;;;;;;;7.33;2.70;;;;;15.30;98854.00;;;;16702464;28;20616;-48
2022/12/24 10:27:10;;;;;;;6.90;2.70;;;;;15.60;98866.00;;;;16712751;28;20217;-48
2022/12/24 10:35:20;;;;;;;8.27;3.50;;;;;15.80;98878.00;;;;16716075;28;20217;-48
2022/12/24 10:43:24;;;;;;;11.53;3.83;;;;;15.90;98891.00;;;;16694907;28;20729;-48
2022/12/24 10:51:34;;;;;;;14.90;3.67;;;;;16.00;98885.00;;;;16716905;28;20222;-48
2022/12/24 10:59:43;;;;;;;5.70;2.70;;;;;15.50;98894.00;;;;16705870;28;20297;-48
2022/12/24 11:08:00;;;;;;;7.40;2.77;;;;;15.70;98887.00;;;;16713257;28;20222;-48
2022/12/24 11:16:05;;;;;;;7.63;3.17;;;;;15.90;98888.00;;;;16705416;28;20226;-48
2022/12/24 11:24:21;;;;;;;6.80;2.70;;;;;15.90;98896.00;;;;16704404;28;20233;-48
2022/12/24 11:32:24;;;;;;;5.20;2.80;;;;;15.90;98885.00;;;;16704895;28;20225;-48
2022/12/24 11:40:33;;;;;;;8.43;3.70;;;;;15.50;98884.00;;;;16713751;28;20200;-48
2022/12/24 11:48:36;;;;;;;7.00;2.80;;;;;15.80;98877.00;;;;16701963;28;20268;-48
2022/12/24 11:56:43;;;;;;;14.50;6.70;;;;;14.90;98888.00;;;;16719101;28;20218;-48
2022/12/24 12:04:48;;;;;;;10.80;3.17;;;;;15.50;98881.00;;;;16712107;28;20221;-48
2022/12/24 12:12:58;;;;;;;9.67;4.20;;;;;15.70;98878.00;;;;16711809;28;20226;-48
2022/12/24 12:21:02;;;;;;;8.83;2.83;;;;;16.10;98861.00;;;;16717575;28;20276;-48
2022/12/24 12:29:15;;;;;;;8.70;2.90;;;;;16.70;98862.00;;;;16716110;28;20828;-48
2022/12/24 12:37:22;;;;;;;7.40;3.10;;;;;17.40;98868.00;;;;16717130;28;20217;-48
2022/12/24 12:45:39;;;;;;;9.27;3.30;;;;;15.50;98888.00;;;;16704066;28;20226;-47
2022/12/24 12:53:50;;;;;;;10.10;4.77;;;;;15.10;98898.00;;;;16712312;28;20244;-48
2022/12/24 13:02:01;;;;;;;9.50;4.07;;;;;15.40;98898.00;;;;16700825;28;20265;-48
2022/12/24 13:10:30;;;;;;;9.23;4.87;;;;;15.40;98897.00;;;;16691614;28;20221;-48
2022/12/24 13:18:48;;;;;;;7.63;3.23;;;;;16.10;98880.00;;;;16686777;28;20263;-48
2022/12/24 13:27:05;;;;;;;10.53;4.10;;;;;16.10;98889.00;;;;16659741;28;20349;-48
2022/12/24 13:35:32;;;;;;;8.83;4.20;;;;;15.90;98889.00;;;;16659011;28;20769;-48
2022/12/24 13:44:03;;;;;;;9.20;5.57;;;;;16.80;98877.00;;;;16671697;28;20213;-49
2022/12/24 13:52:25;;;;;;;11.77;5.07;;;;;15.60;98896.00;;;;16699822;28;20222;-48
2022/12/24 14:00:39;;;;;;;13.93;5.67;;;;;14.60;98901.00;;;;16703483;28;20251;-48
2022/12/24 14:08:44;;;;;;;11.73;5.30;;;;;14.40;98892.00;;;;16676049;28;20220;-47
2022/12/24 14:16:50;;;;;;;17.13;8.20;;;;;14.70;98882.00;;;;16701530;28;20713;-47
2022/12/24 14:24:56;;;;;;;15.47;8.57;;;;;14.80;98881.00;;;;16705314;28;20590;-48
2022/12/24 14:32:59;;;;;;;15.00;11.80;;;;;15.30;98867.00;;;;16703095;28;20229;-48
2022/12/24 14:41:08;;;;;;;16.67;8.80;;;;;14.50;98891.00;;;;16703646;28;20194;-48
2022/12/24 14:49:22;;;;;;;14.40;5.40;;;;;13.70;98879.00;;;;16709023;28;20240;-48
2022/12/24 14:57:26;;;;;;;18.67;10.50;;;;;13.30;98905.00;;;;16716811;28;20731;-47
2022/12/24 15:05:30;;;;;;;10.93;6.60;;;;;13.50;98904.00;;;;16714070;28;20212;-48
2022/12/24 15:13:36;;;;;;;11.13;6.73;;;;;12.70;98921.00;;;;16712910;28;20233;-47
2022/12/24 15:21:40;;;;;;;14.10;6.33;;;;;12.80;98908.00;;;;16721829;28;20204;-47
2022/12/24 15:29:47;;;;;;;18.60;10.30;;;;;12.50;98935.00;;;;16715840;28;20228;-47
2022/12/24 15:37:49;;;;;;;26.60;12.13;;;;;12.40;98947.00;;;;16718586;28;20716;-48
2022/12/24 15:45:53;;;;;;;8.70;5.47;;;;;12.10;98957.00;;;;16709014;28;20228;-47
2022/12/24 15:53:59;;;;;;;9.93;5.30;;;;;12.00;98966.00;;;;16717164;28;20227;-47
2022/12/24 16:02:34;;;;;;;11.83;5.40;;;;;12.00;98963.00;;;;16711368;28;20542;-48
2022/12/24 16:10:39;;;;;;;13.83;5.80;;;;;12.00;98963.00;;;;16707308;28;20232;-47
2022/12/24 16:18:50;;;;;;;14.37;8.33;;;;;11.80;98965.00;;;;16712870;28;20622;-48
2022/12/24 16:26:53;;;;;;;18.13;9.00;;;;;11.90;98962.00;;;;16685527;28;20715;-48
2022/12/24 16:34:57;;;;;;;13.93;8.30;;;;;11.80;98972.00;;;;16677209;28;20232;-47
2022/12/24 16:51:21;;;;;;;11.17;6.97;;;;;11.50;98989.00;;;;16701845;28;20760;-47
2022/12/24 16:59:24;;;;;;;8.73;7.03;;;;;11.40;99009.00;;;;16709405;28;20224;-47
2022/12/24 17:07:28;;;;;;;17.83;10.90;;;;;11.50;99005.00;;;;16702244;28;20301;-47
2022/12/24 17:15:31;;;;;;;10.77;7.10;;;;;11.80;99013.00;;;;16712363;28;20309;-47
2022/12/24 17:23:34;;;;;;;13.80;8.43;;;;;12.50;99009.00;;;;16711802;28;20221;-48
2022/12/24 17:31:38;;;;;;;13.83;6.67;;;;;12.60;99012.00;;;;16703010;28;20222;-47
2022/12/24 17:39:41;;;;;;;7.37;6.13;;;;;12.00;99026.00;;;;16714064;28;20867;-48
2022/12/24 17:47:44;;;;;;;11.43;9.20;;;;;12.10;99026.00;;;;16696119;28;20220;-47
2022/12/24 17:55:47;;;;;;;12.67;8.43;;;;;11.90;99051.00;;;;16713219;28;20238;-47
2022/12/24 18:03:51;;;;;;;11.93;8.10;;;;;11.80;99034.00;;;;16700663;28;20220;-47
2022/12/24 18:11:55;;;;;;;11.17;9.77;;;;;11.80;99047.00;;;;16703360;28;20219;-47
2022/12/24 18:19:57;;;;;;;11.03;8.90;;;;;12.50;99029.00;;;;16712008;28;20214;-48
2022/12/24 18:28:01;;;;;;;19.20;14.63;;;;;13.40;99022.00;;;;16711477;28;20316;-49
2022/12/24 18:36:04;;;;;;;21.53;12.83;;;;;13.70;99021.00;;;;16717753;28;20236;-48
2022/12/24 18:44:09;;;;;;;11.10;4.87;;;;;14.10;99019.00;;;;16717744;28;20218;-47
2022/12/24 18:52:12;;;;;;;10.70;4.47;;;;;14.30;99018.00;;;;16713701;28;20229;-48
2022/12/24 19:00:16;;;;;;;10.37;4.30;;;;;14.50;99005.00;;;;16717016;28;20207;-48
2022/12/24 19:08:19;;;;;;;6.80;3.73;;;;;14.40;98998.00;;;;16709935;28;20205;-48
2022/12/24 19:16:23;;;;;;;6.97;5.90;;;;;14.30;99025.00;;;;16719132;28;20222;-48
2022/12/24 19:24:25;;;;;;;4.40;3.10;;;;;14.50;99012.00;;;;16713170;28;20218;-48
2022/12/24 19:32:29;;;;;;;3.70;3.07;;;;;14.30;99024.00;;;;16714365;28;20267;-48
2022/12/24 19:40:31;;;;;;;9.47;5.67;;;;;14.20;99011.00;;;;16718831;28;20580;-48
2022/12/24 19:48:35;;;;;;;15.47;11.30;;;;;13.90;99006.00;;;;16707583;28;20725;-48
2022/12/24 19:56:38;;;;;;;10.37;8.30;;;;;13.80;99026.00;;;;16713499;28;20702;-48
2022/12/24 20:04:42;;;;;;;13.53;7.90;;;;;14.00;99047.00;;;;16705715;28;20216;-47
2022/12/24 20:12:44;;;;;;;10.33;7.17;;;;;14.00;99066.00;;;;16698330;28;20703;-48
2022/12/24 20:20:48;;;;;;;10.23;7.70;;;;;13.90;99091.00;;;;16677613;28;20210;-48
2022/12/24 20:28:51;;;;;;;11.87;7.07;;;;;14.10;99089.00;;;;16678227;28;20224;-48
2022/12/24 20:36:55;;;;;;;10.50;6.90;;;;;13.80;99082.00;;;;16695619;28;20226;-47
2022/12/24 20:44:59;;;;;;;9.63;7.80;;;;;13.80;99091.00;;;;16676261;28;20217;-48
2022/12/24 20:53:03;;;;;;;10.00;7.00;;;;;13.80;99085.00;;;;16696317;28;20649;-48
2022/12/24 21:01:09;;;;;;;13.43;6.50;;;;;13.80;99093.00;;;;16661737;28;20779;-48
2022/12/24 21:09:13;;;;;;;12.90;6.53;;;;;13.80;99107.00;;;;16676144;28;20217;-48
2022/12/24 21:17:15;;;;;;;6.97;6.17;;;;;13.50;99083.00;;;;16689487;28;20740;-48
2022/12/24 21:25:19;;;;;;;10.30;7.10;;;;;13.20;99102.00;;;;16702008;28;20314;-48
2022/12/24 21:33:22;;;;;;;9.73;7.37;;;;;13.00;99106.00;;;;16686726;28;20230;-48
2022/12/24 21:41:26;;;;;;;8.97;7.67;;;;;13.00;99122.00;;;;16633298;28;20216;-48
2022/12/24 21:57:53;;;;;;;12.23;8.70;;;;;13.20;99141.00;;;;16638724;28;20227;-47
2022/12/24 22:05:59;;;;;;;13.70;9.80;;;;;12.90;99140.00;;;;16623973;28;20309;-48
2022/12/24 22:14:03;;;;;;;9.77;8.77;;;;;12.70;99144.00;;;;16630617;28;20711;-47
2022/12/24 22:22:05;;;;;;;11.63;8.83;;;;;12.80;99132.00;;;;16641132;28;20339;-48
2022/12/24 22:30:10;;;;;;;10.63;8.10;;;;;12.60;99106.00;;;;16621981;28;20218;-48
2022/12/24 22:38:13;;;;;;;12.60;8.80;;;;;12.50;99077.00;;;;16697476;28;20765;-48
2022/12/24 22:46:17;;;;;;;9.90;7.30;;;;;12.50;99069.00;;;;16697724;28;20591;-48
2022/12/24 22:54:19;;;;;;;15.53;8.83;;;;;12.60;99067.00;;;;16681408;28;20225;-48
2022/12/24 23:02:23;;;;;;;8.47;7.13;;;;;12.50;99061.00;;;;16676100;28;20230;-48
2022/12/24 23:10:26;;;;;;;11.27;8.97;;;;;12.60;99069.00;;;;16676861;28;20226;-48
2022/12/24 23:18:29;;;;;;;13.93;8.60;;;;;12.60;99071.00;;;;16670894;28;20570;-48
2022/12/24 23:26:32;;;;;;;11.90;9.07;;;;;12.50;99067.00;;;;16664392;28;20585;-49
2022/12/24 23:34:35;;;;;;;10.87;9.70;;;;;12.60;99065.00;;;;16658675;28;20229;-48
2022/12/24 23:42:38;;;;;;;11.47;9.30;;;;;12.60;99064.00;;;;16663790;28;20956;-48
2022/12/24 23:50:42;;;;;;;12.60;9.43;;;;;12.60;99056.00;;;;16714529;28;20216;-48
2022/12/24 23:58:44;;;;;;;15.17;10.83;;;;;12.60;99054.00;;;;16711157;28;20591;-48
